Time;durP1;ratioP1;P1;durP2;ratioP2;P2;SDS_P1;SDS_P2;PMS_P1;PMS_P2;Temp;Humidity;BMP_temperature;BMP_pressure;BME280_temperature;BME280_humidity;BME280_pressure;Samples;Min_cycle;Max_cycle;Signal;HPM_P1;HPM_P2
2022/10/08 00:00:47;;;;;;;14.10;3.60;;;12.90;99.90;;;;;;5053809;28;20103;-56
2022/10/08 00:03:15;;;;;;;10.77;2.90;;;12.90;99.90;;;;;;5054077;28;20056;-56
2022/10/08 00:05:41;;;;;;;12.43;3.47;;;12.90;99.90;;;;;;5052879;28;20048;-56
2022/10/08 00:08:08;;;;;;;8.40;2.97;;;12.90;99.90;;;;;;5053688;28;20045;-55
2022/10/08 00:10:34;;;;;;;8.32;2.67;;;12.90;99.90;;;;;;5053959;28;20126;-57
2022/10/08 00:13:00;;;;;;;8.07;3.13;;;12.80;99.90;;;;;;5053843;28;20372;-56
2022/10/08 00:15:27;;;;;;;11.60;2.80;;;12.80;99.90;;;;;;5053513;28;20060;-58
2022/10/08 00:17:53;;;;;;;16.55;4.15;;;12.80;99.90;;;;;;5053891;28;20041;-56
2022/10/08 00:20:18;;;;;;;7.13;3.15;;;12.90;99.90;;;;;;5053752;28;20036;-56
2022/10/08 00:22:44;;;;;;;9.65;2.95;;;12.90;99.90;;;;;;5053919;28;20041;-56
2022/10/08 00:25:09;;;;;;;9.80;3.15;;;12.80;99.90;;;;;;5053631;28;20036;-57
2022/10/08 00:27:35;;;;;;;10.98;2.80;;;12.90;99.90;;;;;;5053812;28;20038;-55
2022/10/08 00:30:03;;;;;;;9.50;3.00;;;12.80;99.90;;;;;;5053546;28;20361;-56
2022/10/08 00:32:28;;;;;;;10.18;2.80;;;12.90;99.90;;;;;;5053592;28;20116;-56
2022/10/08 00:34:54;;;;;;;6.97;2.50;;;12.90;99.90;;;;;;5053567;28;20083;-56
2022/10/08 00:37:20;;;;;;;10.95;3.33;;;12.80;99.90;;;;;;5053060;28;20045;-56
2022/10/08 00:39:45;;;;;;;7.70;2.60;;;12.90;99.90;;;;;;5053565;28;20095;-55
2022/10/08 00:42:11;;;;;;;11.15;2.50;;;12.80;99.90;;;;;;5053585;28;20059;-57
2022/10/08 00:44:46;;;;;;;8.77;2.70;;;12.90;99.90;;;;;;5053507;28;20104;-56
2022/10/08 00:47:28;;;;;;;8.68;2.42;;;12.90;99.90;;;;;;5053539;28;20049;-55
2022/10/08 00:50:02;;;;;;;11.57;3.03;;;12.90;99.90;;;;;;5053542;28;20037;-56
2022/10/08 00:52:32;;;;;;;6.97;2.70;;;12.80;99.90;;;;;;5054013;28;20120;-55
2022/10/08 00:54:58;;;;;;;6.57;2.08;;;12.80;99.90;;;;;;5056629;28;20052;-55
2022/10/08 00:57:25;;;;;;;11.73;3.28;;;12.90;99.90;;;;;;5057533;28;20037;-56
2022/10/08 00:59:51;;;;;;;14.27;2.22;;;12.90;99.90;;;;;;5057216;28;20128;-55
2022/10/08 01:02:18;;;;;;;7.20;2.10;;;12.80;99.90;;;;;;5057204;28;20470;-55
2022/10/08 01:04:45;;;;;;;9.70;2.10;;;12.70;99.90;;;;;;5057394;28;20041;-55
2022/10/08 01:07:40;;;;;;;6.63;2.33;;;12.80;99.90;;;;;;5057203;28;20036;-55
2022/10/08 01:10:10;;;;;;;10.60;2.30;;;12.60;99.90;;;;;;5057195;28;20037;-56
2022/10/08 01:12:54;;;;;;;7.72;2.67;;;12.80;99.90;;;;;;5056910;28;20555;-55
2022/10/08 01:15:30;;;;;;;12.05;2.92;;;12.80;99.90;;;;;;5057146;28;20120;-56
2022/10/08 01:18:19;;;;;;;6.18;1.83;;;12.70;99.90;;;;;;5056976;28;20412;-56
2022/10/08 01:21:10;;;;;;;10.27;2.28;;;12.80;99.90;;;;;;5056785;28;20033;-55
2022/10/08 01:24:13;;;;;;;7.90;2.33;;;12.70;99.90;;;;;;5057066;28;20048;-54
2022/10/08 01:26:54;;;;;;;8.35;2.42;;;12.70;99.90;;;;;;5057017;28;20041;-56
2022/10/08 01:29:39;;;;;;;7.25;1.98;;;12.80;99.90;;;;;;5056600;28;20037;-56
2022/10/08 01:32:14;;;;;;;7.82;2.17;;;12.80;99.90;;;;;;5056696;28;20115;-56
2022/10/08 01:34:45;;;;;;;9.80;2.05;;;12.60;99.90;;;;;;5056870;28;20048;-54
2022/10/08 01:37:16;;;;;;;6.22;2.15;;;12.80;99.90;;;;;;5056677;28;20476;-54
2022/10/08 01:39:45;;;;;;;7.47;2.22;;;12.60;99.90;;;;;;5056758;28;20036;-55
2022/10/08 01:42:11;;;;;;;4.65;1.60;;;12.50;99.90;;;;;;5056680;28;20041;-55
2022/10/08 01:44:57;;;;;;;7.05;1.98;;;12.60;99.90;;;;;;5056460;28;20114;-56
2022/10/08 01:47:23;;;;;;;4.07;1.60;;;12.50;99.90;;;;;;5056631;28;20090;-55
2022/10/08 01:50:17;;;;;;;6.90;1.63;;;12.50;99.90;;;;;;5056419;28;20036;-55
2022/10/08 01:52:47;;;;;;;6.60;1.92;;;12.50;99.90;;;;;;5055498;28;20045;-55
2022/10/08 01:55:19;;;;;;;5.60;1.85;;;12.30;99.90;;;;;;5056405;28;20043;-56
2022/10/08 01:57:46;;;;;;;6.18;1.80;;;12.40;99.90;;;;;;5056276;28;20517;-56
2022/10/08 02:00:14;;;;;;;6.15;1.63;;;12.30;99.90;;;;;;5054886;28;20434;-56
2022/10/08 02:02:41;;;;;;;6.82;1.92;;;12.40;99.90;;;;;;5055988;28;20498;-56
2022/10/08 02:05:08;;;;;;;7.97;1.95;;;12.30;99.90;;;;;;5055849;28;20084;-55
2022/10/08 02:07:41;;;;;;;3.75;1.70;;;12.30;99.90;;;;;;5056260;28;20094;-53
2022/10/08 02:10:10;;;;;;;6.30;1.48;;;12.20;99.90;;;;;;5056204;28;20045;-55
2022/10/08 02:12:37;;;;;;;5.20;1.80;;;12.30;99.90;;;;;;5056033;28;20048;-56
2022/10/08 02:15:04;;;;;;;11.13;3.03;;;12.20;99.90;;;;;;5056362;28;20045;-56
2022/10/08 02:17:51;;;;;;;6.55;1.70;;;12.20;99.90;;;;;;5056336;28;20041;-56
2022/10/08 02:20:43;;;;;;;6.53;1.77;;;12.00;99.90;;;;;;5055836;28;20037;-55
2022/10/08 02:23:12;;;;;;;9.10;2.00;;;12.10;99.90;;;;;;5033690;28;20160;-55
2022/10/08 02:25:54;;;;;;;5.43;1.70;;;12.20;99.90;;;;;;5033713;28;20057;-56
2022/10/08 02:28:44;;;;;;;11.77;1.67;;;12.10;99.90;;;;;;5033733;28;20440;-53
2022/10/08 02:31:25;;;;;;;6.85;2.10;;;12.00;99.90;;;;;;5033598;28;20057;-54
2022/10/08 02:34:11;;;;;;;4.80;1.60;;;12.00;99.90;;;;;;5016991;28;20050;-55
2022/10/08 02:36:41;;;;;;;4.72;1.90;;;11.80;99.90;;;;;;5033543;28;20400;-55
2022/10/08 02:39:10;;;;;;;7.55;2.33;;;11.90;99.90;;;;;;5033557;28;20056;-55
2022/10/08 02:41:51;;;;;;;4.97;2.20;;;11.90;99.90;;;;;;5033659;28;20475;-56
2022/10/08 02:44:52;;;;;;;8.85;1.88;;;11.90;99.90;;;;;;5033386;28;20511;-55
2022/10/08 02:47:21;;;;;;;7.20;1.85;;;11.80;99.90;;;;;;4974549;28;20050;-54
2022/10/08 02:49:53;;;;;;;8.48;1.60;;;11.90;99.90;;;;;;4974491;28;20055;-53
2022/10/08 02:52:21;;;;;;;6.82;2.50;;;11.80;99.90;;;;;;4974290;28;20398;-53
2022/10/08 02:54:49;;;;;;;7.53;2.00;;;11.80;99.90;;;;;;4974304;28;20128;-56
2022/10/08 02:57:28;;;;;;;4.90;1.57;;;11.60;99.90;;;;;;4974278;28;20082;-55
2022/10/08 02:59:54;;;;;;;6.60;1.95;;;11.70;99.90;;;;;;4967354;28;20054;-57
2022/10/08 03:02:57;;;;;;;9.25;1.85;;;11.80;99.90;;;;;;4993597;28;20050;-55
2022/10/08 03:05:23;;;;;;;13.32;2.65;;;11.70;99.90;;;;;;4974081;28;20368;-56
2022/10/08 03:07:50;;;;;;;6.93;2.03;;;11.70;99.90;;;;;;4974023;28;20093;-56
2022/10/08 03:10:18;;;;;;;4.93;1.98;;;11.70;99.90;;;;;;4974054;28;20504;-56
2022/10/08 03:12:45;;;;;;;5.70;2.15;;;11.60;99.90;;;;;;4974119;28;20588;-55
2022/10/08 03:15:13;;;;;;;8.82;1.95;;;11.50;99.90;;;;;;4973366;28;20082;-55
2022/10/08 03:17:43;;;;;;;7.85;1.95;;;11.60;99.90;;;;;;4973873;28;20465;-55
2022/10/08 03:20:10;;;;;;;7.40;2.45;;;11.60;99.90;;;;;;4973878;28;20050;-54
2022/10/08 03:22:37;;;;;;;5.85;1.83;;;11.60;99.90;;;;;;4973900;28;20070;-55
2022/10/08 03:25:03;;;;;;;9.10;1.88;;;11.60;99.90;;;;;;5009061;28;20176;-55
2022/10/08 03:27:29;;;;;;;7.78;2.20;;;11.50;99.90;;;;;;5012907;28;20049;-53
2022/10/08 03:29:57;;;;;;;8.00;1.98;;;11.50;99.90;;;;;;5012743;28;20050;-55
2022/10/08 03:32:24;;;;;;;6.85;2.88;;;11.50;99.90;;;;;;5012496;28;20037;-54
2022/10/08 03:34:50;;;;;;;7.43;2.67;;;11.70;99.90;;;;;;4996281;28;20073;-56
2022/10/08 03:37:16;;;;;;;8.50;2.30;;;11.70;99.90;;;;;;5012640;28;20038;-54
2022/10/08 03:39:44;;;;;;;10.73;3.13;;;11.60;99.90;;;;;;5012986;28;20539;-54
2022/10/08 03:42:10;;;;;;;12.40;2.92;;;11.70;99.90;;;;;;5042755;28;20081;-55
2022/10/08 03:44:36;;;;;;;7.57;3.08;;;11.80;99.90;;;;;;5054310;28;20048;-55
2022/10/08 03:47:02;;;;;;;10.57;3.00;;;11.80;99.90;;;;;;5054389;28;20037;-55
2022/10/08 03:49:27;;;;;;;15.68;3.33;;;11.80;99.90;;;;;;5054280;28;20045;-55
2022/10/08 03:51:53;;;;;;;12.65;2.85;;;11.70;99.90;;;;;;5054069;28;20040;-55
2022/10/08 03:54:19;;;;;;;6.75;2.83;;;11.80;99.90;;;;;;5054201;28;20044;-55
2022/10/08 03:56:44;;;;;;;12.07;3.67;;;11.70;99.90;;;;;;5054102;28;20041;-56
2022/10/08 03:59:10;;;;;;;12.57;3.22;;;11.90;99.90;;;;;;5053924;28;20138;-54
2022/10/08 04:01:36;;;;;;;10.57;3.40;;;11.70;99.90;;;;;;5053900;28;20051;-55
2022/10/08 04:04:02;;;;;;;11.15;2.60;;;11.70;99.90;;;;;;5054106;28;20095;-56
2022/10/08 04:06:27;;;;;;;11.85;3.35;;;11.70;99.90;;;;;;5054003;28;20033;-55
2022/10/08 04:08:59;;;;;;;5.90;2.60;;;11.50;99.90;;;;;;5054017;28;20037;-56
2022/10/08 04:11:26;;;;;;;11.05;2.90;;;11.60;99.90;;;;;;5053840;28;20052;-55
2022/10/08 04:13:52;;;;;;;7.00;2.65;;;11.50;99.90;;;;;;5053762;28;20037;-55
2022/10/08 04:16:18;;;;;;;6.85;2.25;;;11.40;99.90;;;;;;5053888;28;20051;-55
2022/10/08 04:18:44;;;;;;;8.32;2.30;;;11.50;99.90;;;;;;5053700;28;20503;-56
2022/10/08 04:21:13;;;;;;;7.72;2.45;;;11.30;99.90;;;;;;5053599;28;20064;-55
2022/10/08 04:23:40;;;;;;;6.35;2.42;;;11.30;99.90;;;;;;5052657;28;20037;-55
2022/10/08 04:26:07;;;;;;;6.22;1.98;;;11.40;99.90;;;;;;5052678;28;20471;-55
2022/10/08 04:28:36;;;;;;;7.80;2.05;;;11.40;99.90;;;;;;5053681;28;20040;-55
2022/10/08 04:31:04;;;;;;;7.53;3.22;;;11.40;99.90;;;;;;5053675;28;20041;-55
2022/10/08 04:33:32;;;;;;;9.15;2.40;;;11.30;99.90;;;;;;5053470;28;20099;-53
2022/10/08 04:35:57;;;;;;;7.35;2.95;;;11.30;99.90;;;;;;5053449;28;20044;-56
2022/10/08 04:38:24;;;;;;;8.73;1.92;;;11.40;99.90;;;;;;5053317;28;20037;-56
2022/10/08 04:41:07;;;;;;;8.73;2.10;;;11.30;99.90;;;;;;5053539;28;20044;-55
2022/10/08 04:43:35;;;;;;;14.57;2.75;;;11.20;99.90;;;;;;5053603;28;20163;-55
2022/10/08 04:46:00;;;;;;;13.25;2.63;;;11.30;99.90;;;;;;5053394;28;20491;-54
2022/10/08 04:48:26;;;;;;;8.07;2.10;;;11.10;99.90;;;;;;5053271;28;20095;-56
2022/10/08 04:50:56;;;;;;;7.85;3.42;;;11.00;99.90;;;;;;5053555;28;20036;-56
2022/10/08 04:53:22;;;;;;;16.48;2.88;;;11.10;99.90;;;;;;5053388;28;20044;-56
2022/10/08 04:55:47;;;;;;;10.50;1.88;;;11.00;99.90;;;;;;5053339;28;20037;-56
2022/10/08 04:58:13;;;;;;;14.43;3.03;;;11.10;99.90;;;;;;5053306;28;20044;-56
2022/10/08 05:00:39;;;;;;;10.43;2.30;;;11.10;99.90;;;;;;5053229;28;20111;-56
2022/10/08 05:03:04;;;;;;;9.63;2.40;;;11.10;99.90;;;;;;5035464;28;20136;-55
2022/10/08 05:05:30;;;;;;;11.25;2.65;;;11.00;99.90;;;;;;5053386;28;20080;-55
2022/10/08 05:07:56;;;;;;;10.60;2.40;;;10.90;99.90;;;;;;5053162;28;20041;-55
2022/10/08 05:10:23;;;;;;;7.90;2.22;;;11.00;99.90;;;;;;5053339;28;20033;-55
2022/10/08 05:12:49;;;;;;;9.02;2.28;;;10.90;99.90;;;;;;5053242;28;20091;-55
2022/10/08 05:15:14;;;;;;;10.20;2.35;;;11.00;99.90;;;;;;5053333;28;20033;-56
2022/10/08 05:17:40;;;;;;;7.97;2.70;;;10.90;99.90;;;;;;5052385;28;20471;-55
2022/10/08 05:20:06;;;;;;;13.73;2.28;;;10.80;99.90;;;;;;5053186;28;20033;-56
2022/10/08 05:22:31;;;;;;;13.82;2.60;;;10.90;99.90;;;;;;5053217;28;20385;-56
2022/10/08 05:24:57;;;;;;;12.07;2.35;;;10.90;99.90;;;;;;5053183;28;20070;-54
2022/10/08 05:27:23;;;;;;;10.90;2.83;;;11.00;99.90;;;;;;5053194;28;20033;-56
2022/10/08 05:29:48;;;;;;;9.68;2.20;;;10.90;99.90;;;;;;5053019;28;20472;-56
2022/10/08 05:32:14;;;;;;;6.95;2.80;;;10.80;99.90;;;;;;5051171;28;20033;-55
2022/10/08 05:34:40;;;;;;;10.98;2.80;;;10.90;99.90;;;;;;5053041;28;20398;-55
2022/10/08 05:37:05;;;;;;;9.95;2.50;;;10.90;99.90;;;;;;5053083;28;20032;-55
2022/10/08 05:39:31;;;;;;;9.73;2.65;;;10.90;99.90;;;;;;5054944;28;20442;-55
2022/10/08 05:41:56;;;;;;;7.70;2.58;;;10.70;99.90;;;;;;5056355;28;20403;-55
2022/10/08 05:44:22;;;;;;;11.80;2.67;;;10.90;99.90;;;;;;5056682;28;20037;-54
2022/10/08 05:46:48;;;;;;;14.38;3.10;;;10.80;99.90;;;;;;5056637;28;20080;-55
2022/10/08 05:49:18;;;;;;;9.27;2.60;;;10.70;99.90;;;;;;5056518;28;20048;-54
2022/10/08 05:51:44;;;;;;;14.65;2.97;;;10.80;99.90;;;;;;5056429;28;20045;-55
2022/10/08 05:54:09;;;;;;;10.50;2.65;;;10.70;99.90;;;;;;5056827;28;20476;-54
2022/10/08 05:56:36;;;;;;;8.82;2.60;;;10.70;99.90;;;;;;5056463;28;20033;-55
2022/10/08 05:59:02;;;;;;;9.35;2.22;;;10.70;99.90;;;;;;5056257;28;20041;-55
2022/10/08 06:01:30;;;;;;;13.48;3.63;;;10.70;99.90;;;;;;5054911;28;20048;-55
2022/10/08 06:04:01;;;;;;;16.00;3.00;;;10.60;99.90;;;;;;5056292;28;20522;-54
2022/10/08 06:06:27;;;;;;;29.75;2.85;;;10.70;99.90;;;;;;5056225;28;20036;-54
2022/10/08 06:08:58;;;;;;;13.23;2.95;;;10.60;99.90;;;;;;5056057;28;20040;-55
2022/10/08 06:11:25;;;;;;;12.27;2.63;;;10.70;99.90;;;;;;5056174;28;20111;-55
2022/10/08 06:13:53;;;;;;;13.70;2.30;;;10.70;99.90;;;;;;5055981;28;20487;-54
2022/10/08 06:16:19;;;;;;;11.27;2.38;;;10.70;99.90;;;;;;5056133;28;20037;-55
2022/10/08 06:18:44;;;;;;;13.68;2.80;;;10.70;99.90;;;;;;5054789;28;20045;-55
2022/10/08 06:21:13;;;;;;;7.15;2.50;;;10.70;99.90;;;;;;5055368;28;20051;-55
2022/10/08 06:23:44;;;;;;;8.18;2.20;;;10.70;99.90;;;;;;5055383;28;20040;-54
2022/10/08 06:26:10;;;;;;;14.52;3.25;;;10.70;99.90;;;;;;5055660;28;20040;-55
2022/10/08 06:28:37;;;;;;;15.82;2.88;;;10.70;99.90;;;;;;5055698;28;20377;-53
2022/10/08 06:31:05;;;;;;;15.02;2.58;;;10.70;99.90;;;;;;5055649;28;20461;-55
2022/10/08 06:33:30;;;;;;;14.23;3.15;;;10.60;99.90;;;;;;5055952;28;20095;-53
2022/10/08 06:36:05;;;;;;;11.30;2.85;;;10.70;99.90;;;;;;5055691;28;20188;-53
2022/10/08 06:38:30;;;;;;;13.18;3.30;;;10.80;99.90;;;;;;5055879;28;20073;-52
2022/10/08 06:40:59;;;;;;;15.02;3.35;;;10.80;99.90;;;;;;5054046;28;20083;-55
2022/10/08 06:43:25;;;;;;;16.13;3.10;;;10.90;99.90;;;;;;5054762;28;20369;-54
2022/10/08 06:45:52;;;;;;;18.52;4.63;;;11.00;99.90;;;;;;5052586;28;20099;-54
2022/10/08 06:48:18;;;;;;;13.98;3.40;;;11.00;99.90;;;;;;5055476;28;20087;-55
2022/10/08 06:50:44;;;;;;;10.43;1.92;;;11.20;99.90;;;;;;5054348;28;20360;-55
2022/10/08 06:53:10;;;;;;;14.23;1.88;;;11.10;99.90;;;;;;5055366;28;20116;-55
2022/10/08 06:55:40;;;;;;;14.45;2.22;;;11.20;99.90;;;;;;5055398;28;20047;-55
2022/10/08 06:58:05;;;;;;;6.15;1.35;;;11.30;99.90;;;;;;5055204;28;20494;-56
2022/10/08 07:00:31;;;;;;;13.00;2.17;;;11.10;99.90;;;;;;5054788;28;20091;-57
2022/10/08 07:02:57;;;;;;;10.20;1.65;;;11.10;99.90;;;;;;5055140;28;20049;-56
2022/10/08 07:05:23;;;;;;;4.80;1.30;;;11.10;99.90;;;;;;5054171;28;20087;-56
2022/10/08 07:07:49;;;;;;;6.28;1.60;;;11.10;99.90;;;;;;5055042;28;20448;-56
2022/10/08 07:10:15;;;;;;;7.65;1.52;;;11.10;99.90;;;;;;5053747;28;20052;-56
2022/10/08 07:12:41;;;;;;;6.72;1.58;;;11.10;99.90;;;;;;5052498;28;20086;-55
2022/10/08 07:15:07;;;;;;;5.47;1.33;;;11.10;99.90;;;;;;5053766;28;20418;-56
2022/10/08 07:17:32;;;;;;;6.22;1.70;;;11.10;99.90;;;;;;5055015;28;20086;-56
2022/10/08 07:19:58;;;;;;;8.05;1.30;;;11.10;99.90;;;;;;5054645;28;20124;-55
2022/10/08 07:22:24;;;;;;;10.38;2.25;;;11.30;99.90;;;;;;5054826;28;20044;-56
2022/10/08 07:24:50;;;;;;;10.15;1.60;;;11.60;99.90;;;;;;5055598;28;20045;-56
2022/10/08 07:27:18;;;;;;;9.90;1.92;;;11.90;99.90;;;;;;5054653;28;20033;-55
2022/10/08 07:29:44;;;;;;;14.30;2.13;;;12.10;99.90;;;;;;5054670;28;20045;-56
2022/10/08 07:32:09;;;;;;;14.80;3.25;;;12.20;99.90;;;;;;5053299;28;20132;-56
2022/10/08 07:34:35;;;;;;;11.32;2.03;;;12.60;99.90;;;;;;5054590;28;20510;-54
2022/10/08 07:37:01;;;;;;;7.90;1.73;;;12.90;99.90;;;;;;5054525;28;20043;-56
2022/10/08 07:39:26;;;;;;;13.25;1.90;;;12.90;99.90;;;;;;5052794;28;20131;-54
2022/10/08 07:41:52;;;;;;;5.38;1.70;;;12.90;99.90;;;;;;5053263;28;20041;-58
2022/10/08 07:44:18;;;;;;;5.57;1.77;;;12.90;99.90;;;;;;5053197;28;20495;-55
2022/10/08 07:46:49;;;;;;;7.20;1.50;;;12.80;99.90;;;;;;5054343;28;20051;-55
2022/10/08 07:49:16;;;;;;;6.47;1.63;;;12.70;99.90;;;;;;5054379;28;20041;-55
2022/10/08 07:51:42;;;;;;;8.63;2.38;;;13.00;99.90;;;;;;5054113;28;20040;-56
2022/10/08 07:54:13;;;;;;;8.57;1.60;;;13.30;99.90;;;;;;5054228;28;20036;-55
2022/10/08 07:56:38;;;;;;;7.53;1.77;;;13.60;99.90;;;;;;5053998;28;20066;-56
2022/10/08 07:59:04;;;;;;;4.95;1.65;;;14.00;99.90;;;;;;5054000;28;20090;-56
2022/10/08 08:01:32;;;;;;;6.88;1.30;;;14.30;99.90;;;;;;5053836;28;20112;-55
2022/10/08 08:04:06;;;;;;;9.07;1.42;;;14.70;99.90;;;;;;5053920;28;20483;-55
2022/10/08 08:06:37;;;;;;;8.05;1.30;;;14.90;99.90;;;;;;5054026;28;20158;-55
2022/10/08 08:09:03;;;;;;;4.97;1.50;;;15.20;99.90;;;;;;5053656;28;20039;-56
2022/10/08 08:11:29;;;;;;;9.80;1.60;;;15.40;99.90;;;;;;5053850;28;20037;-54
2022/10/08 08:13:54;;;;;;;7.45;1.63;;;15.60;99.90;;;;;;5053620;28;20503;-55
2022/10/08 08:16:24;;;;;;;6.40;1.17;;;15.60;99.90;;;;;;5053717;28;20037;-55
2022/10/08 08:18:52;;;;;;;6.45;1.42;;;15.50;99.90;;;;;;5053854;28;20041;-56
2022/10/08 08:21:21;;;;;;;7.97;1.50;;;15.40;99.90;;;;;;5053847;28;20123;-54
2022/10/08 08:23:49;;;;;;;5.07;1.25;;;15.50;99.90;;;;;;5053738;28;20068;-56
2022/10/08 08:26:31;;;;;;;5.23;1.20;;;15.60;99.90;;;;;;5053710;28;20127;-55
2022/10/08 08:29:03;;;;;;;5.90;1.20;;;15.90;99.90;;;;;;5053827;28;20048;-56
2022/10/08 08:31:31;;;;;;;5.20;1.25;;;16.00;99.90;;;;;;5053801;28;20040;-55
2022/10/08 08:34:00;;;;;;;7.70;1.60;;;15.90;99.90;;;;;;5053652;28;20106;-55
2022/10/08 08:36:28;;;;;;;6.78;2.33;;;16.10;99.90;;;;;;5053443;28;20064;-56
2022/10/08 08:38:55;;;;;;;6.85;1.45;;;15.90;99.90;;;;;;5053624;28;20044;-56
2022/10/08 08:41:44;;;;;;;9.65;1.92;;;15.60;99.90;;;;;;5053608;28;20036;-56
2022/10/08 08:44:16;;;;;;;6.57;1.13;;;15.80;99.90;;;;;;5053590;28;20033;-56
2022/10/08 08:46:46;;;;;;;9.30;1.33;;;15.60;99.90;;;;;;5053489;28;20501;-56
2022/10/08 08:49:20;;;;;;;6.78;1.08;;;15.60;99.90;;;;;;5053611;28;20447;-55
2022/10/08 08:51:46;;;;;;;7.60;1.30;;;15.50;99.90;;;;;;5053649;28;20039;-55
2022/10/08 08:54:11;;;;;;;11.65;2.38;;;15.70;99.90;;;;;;5053417;28;20112;-56
2022/10/08 08:56:37;;;;;;;8.88;1.83;;;15.50;99.90;;;;;;5053502;28;20383;-56
2022/10/08 08:59:18;;;;;;;6.00;1.15;;;15.60;99.90;;;;;;5053295;28;20033;-56
2022/10/08 09:01:45;;;;;;;5.53;1.00;;;15.60;99.90;;;;;;5051947;28;20049;-57
2022/10/08 09:04:22;;;;;;;13.48;1.77;;;15.40;99.90;;;;;;5053437;28;20033;-55
2022/10/08 09:06:51;;;;;;;6.40;1.75;;;15.60;99.90;;;;;;5053431;28;20083;-56
2022/10/08 09:09:38;;;;;;;5.30;1.05;;;15.50;99.90;;;;;;5053272;28;20502;-56
2022/10/08 09:12:38;;;;;;;10.65;1.30;;;15.40;99.90;;;;;;5053309;28;20391;-56
2022/10/08 09:15:12;;;;;;;5.20;1.17;;;15.40;99.90;;;;;;5056583;28;20074;-55
2022/10/08 09:17:39;;;;;;;10.15;1.25;;;15.50;99.90;;;;;;5057201;28;20041;-55
2022/10/08 09:20:05;;;;;;;9.48;1.88;;;15.50;99.90;;;;;;5056862;28;20125;-56
2022/10/08 09:22:38;;;;;;;10.23;1.40;;;15.50;99.90;;;;;;5057037;28;20064;-55
2022/10/08 09:25:09;;;;;;;9.18;1.60;;;15.40;99.90;;;;;;5057352;28;20048;-55
2022/10/08 09:27:52;;;;;;;8.00;1.02;;;15.50;99.90;;;;;;5057027;28;20047;-54
2022/10/08 09:30:23;;;;;;;7.28;1.35;;;15.50;99.90;;;;;;5057312;28;20127;-55
2022/10/08 09:32:51;;;;;;;7.13;1.38;;;15.50;99.90;;;;;;5056771;28;20060;-55
2022/10/08 09:35:17;;;;;;;7.28;1.58;;;15.50;99.90;;;;;;5056903;28;20041;-55
2022/10/08 09:37:47;;;;;;;13.27;1.20;;;15.70;99.90;;;;;;5056842;28;20061;-55
2022/10/08 09:40:22;;;;;;;13.98;1.48;;;15.70;99.90;;;;;;5056896;28;20037;-56
2022/10/08 09:43:06;;;;;;;8.18;1.10;;;15.60;99.90;;;;;;5056660;28;20051;-56
2022/10/08 09:45:37;;;;;;;8.35;2.00;;;15.70;99.90;;;;;;5056602;28;20048;-58
2022/10/08 09:48:12;;;;;;;8.60;1.95;;;15.90;99.90;;;;;;5056682;28;20037;-56
2022/10/08 09:50:37;;;;;;;5.55;1.02;;;15.40;99.90;;;;;;5056613;28;20396;-56
2022/10/08 09:53:04;;;;;;;12.10;1.75;;;14.90;99.90;;;;;;5056368;28;20033;-55
2022/10/08 09:55:34;;;;;;;7.55;1.10;;;14.70;99.90;;;;;;5056965;28;20040;-55
2022/10/08 09:58:02;;;;;;;9.00;1.85;;;14.40;99.90;;;;;;5056466;28;20033;-57
2022/10/08 10:00:36;;;;;;;10.80;2.30;;;14.30;99.90;;;;;;5056105;28;20049;-56
2022/10/08 10:03:13;;;;;;;12.18;2.53;;;14.20;99.90;;;;;;5056319;28;20080;-55
2022/10/08 10:05:40;;;;;;;9.40;1.73;;;14.10;99.90;;;;;;5056142;28;20098;-56
2022/10/08 10:08:05;;;;;;;9.55;2.28;;;14.10;99.90;;;;;;5056239;28;20087;-55
2022/10/08 10:10:47;;;;;;;11.48;2.50;;;14.20;99.90;;;;;;5056088;28;20077;-55
2022/10/08 10:13:19;;;;;;;8.95;3.05;;;14.30;99.90;;;;;;5056100;28;20045;-54
2022/10/08 10:15:51;;;;;;;9.10;2.60;;;14.40;99.90;;;;;;5056155;28;20040;-55
2022/10/08 10:18:27;;;;;;;8.75;2.85;;;14.20;99.90;;;;;;5055982;28;20036;-56
2022/10/08 10:20:58;;;;;;;15.38;2.17;;;14.20;99.90;;;;;;5055936;28;20041;-55
2022/10/08 10:23:33;;;;;;;11.10;2.00;;;14.20;99.90;;;;;;5055548;28;20037;-55
2022/10/08 10:26:14;;;;;;;9.65;1.70;;;14.40;99.90;;;;;;5055744;28;20067;-55
2022/10/08 10:28:49;;;;;;;10.18;2.03;;;14.50;99.90;;;;;;5055771;28;20045;-55
2022/10/08 10:31:42;;;;;;;7.10;1.70;;;14.60;99.90;;;;;;5053684;28;20507;-55
2022/10/08 10:34:24;;;;;;;10.80;2.20;;;14.60;99.90;;;;;;5055515;28;20048;-55
2022/10/08 10:36:56;;;;;;;14.65;4.85;;;14.60;99.90;;;;;;5054691;28;20124;-55
2022/10/08 10:39:36;;;;;;;9.32;2.38;;;14.60;99.90;;;;;;5056121;28;20120;-55
2022/10/08 10:42:08;;;;;;;16.42;7.40;;;14.50;99.90;;;;;;5055643;28;20040;-56
2022/10/08 10:44:56;;;;;;;14.63;5.00;;;14.50;99.90;;;;;;5055575;28;20048;-55
2022/10/08 10:47:29;;;;;;;11.80;3.67;;;14.60;99.90;;;;;;5055934;28;20460;-55
2022/10/08 10:49:55;;;;;;;7.32;1.63;;;14.80;99.90;;;;;;5055498;28;20037;-56
2022/10/08 10:52:42;;;;;;;15.90;5.80;;;14.90;99.90;;;;;;5055351;28;20053;-56
2022/10/08 10:55:30;;;;;;;7.35;1.63;;;15.20;99.90;;;;;;5055449;28;20041;-56
2022/10/08 10:58:18;;;;;;;8.45;1.77;;;15.50;99.90;;;;;;5055079;28;20051;-55
2022/10/08 11:00:56;;;;;;;10.25;1.77;;;15.60;99.90;;;;;;5055095;28;20106;-56
2022/10/08 11:03:40;;;;;;;10.32;2.00;;;15.60;99.90;;;;;;5055148;28;20048;-55
2022/10/08 11:06:24;;;;;;;6.88;2.05;;;15.50;99.90;;;;;;5055175;28;20430;-56
2022/10/08 11:09:28;;;;;;;21.17;2.38;;;15.60;99.90;;;;;;5053705;28;20052;-54
2022/10/08 11:12:00;;;;;;;9.73;2.25;;;15.50;99.90;;;;;;5054730;28;20094;-55
2022/10/08 11:14:43;;;;;;;13.13;1.95;;;15.20;99.90;;;;;;5054976;28;20041;-56
2022/10/08 11:17:17;;;;;;;10.45;1.75;;;15.10;99.90;;;;;;5055339;28;20051;-56
2022/10/08 11:20:21;;;;;;;7.45;2.05;;;15.30;99.90;;;;;;5054882;28;20064;-56
2022/10/08 11:23:10;;;;;;;12.13;2.78;;;15.60;99.90;;;;;;5054793;28;20574;-55
2022/10/08 11:26:01;;;;;;;10.18;1.55;;;15.70;99.90;;;;;;5054823;28;20116;-56
2022/10/08 11:28:38;;;;;;;;;;;15.80;99.90;;;;;;5055176;28;20040;-56
2022/10/08 11:31:10;;;;;;;11.73;1.90;;;15.90;99.90;;;;;;5054586;28;19970;-57
2022/10/08 11:33:36;;;;;;;8.70;2.60;;;16.00;99.90;;;;;;5054630;28;20436;-57
2022/10/08 11:36:28;;;;;;;12.75;1.80;;;15.90;99.90;;;;;;5054029;28;20069;-55
2022/10/08 11:39:13;;;;;;;2.25;0.80;;;15.90;99.90;;;;;;5054589;28;20391;-56
2022/10/08 11:41:56;;;;;;;3.92;1.60;;;15.40;99.90;;;;;;5053925;28;20033;-55
2022/10/08 11:44:22;;;;;;;5.07;1.10;;;15.60;99.90;;;;;;5050632;28;20391;-55
2022/10/08 11:46:48;;;;;;;4.40;1.20;;;15.30;99.90;;;;;;5052734;28;20049;-55
2022/10/08 11:49:13;;;;;;;4.70;0.90;;;14.80;99.90;;;;;;5054370;28;20025;-56
2022/10/08 11:51:50;;;;;;;5.72;1.05;;;14.50;99.90;;;;;;5052935;28;20124;-56
2022/10/08 11:54:37;;;;;;;3.78;0.80;;;14.30;99.90;;;;;;5054250;28;20032;-55
2022/10/08 11:57:21;;;;;;;8.50;2.35;;;14.00;99.90;;;;;;5054176;28;20029;-56
2022/10/08 12:00:28;;;;;;;5.28;1.38;;;13.90;99.90;;;;;;5053819;28;20057;-56
2022/10/08 12:02:54;;;;;;;5.50;1.02;;;14.10;99.90;;;;;;5011449;28;20049;-54
2022/10/08 12:05:26;;;;;;;10.75;1.70;;;14.30;99.90;;;;;;4994174;28;20049;-56
2022/10/08 12:07:57;;;;;;;5.30;0.95;;;14.50;99.90;;;;;;5011080;28;20140;-55
2022/10/08 12:10:28;;;;;;;4.93;1.02;;;14.80;99.90;;;;;;5011879;28;20048;-56
2022/10/08 12:12:58;;;;;;;7.53;1.17;;;15.00;99.90;;;;;;5010643;28;20054;-55
2022/10/08 12:15:24;;;;;;;5.47;1.10;;;15.20;99.90;;;;;;5010754;28;20081;-56
2022/10/08 12:17:58;;;;;;;11.30;1.10;;;15.40;99.90;;;;;;5012089;28;20497;-55
2022/10/08 12:20:28;;;;;;;6.53;1.35;;;15.60;99.90;;;;;;5011969;28;20042;-55
2022/10/08 12:23:08;;;;;;;10.63;1.60;;;15.80;99.90;;;;;;5012186;28;20046;-55
2022/10/08 12:26:01;;;;;;;13.60;2.33;;;16.10;99.90;;;;;;5011903;28;20192;-56
2022/10/08 12:28:27;;;;;;;7.63;1.58;;;16.40;99.90;;;;;;5012137;28;20133;-56
2022/10/08 12:30:55;;;;;;;7.85;1.55;;;16.70;99.90;;;;;;5011820;28;20121;-56
2022/10/08 12:33:22;;;;;;;6.18;1.20;;;16.80;99.90;;;;;;5011803;28;20107;-56
2022/10/08 12:36:01;;;;;;;9.50;2.05;;;16.90;99.90;;;;;;5011929;28;20092;-56
2022/10/08 12:38:53;;;;;;;7.03;1.98;;;16.80;99.90;;;;;;5015428;28;20084;-54
2022/10/08 12:41:25;;;;;;;8.52;1.60;;;16.30;99.90;;;;;;5042997;28;20066;-55
2022/10/08 12:44:00;;;;;;;6.15;1.08;;;16.00;99.90;;;;;;5051240;28;20086;-55
2022/10/08 12:46:50;;;;;;;5.65;0.80;;;16.00;99.90;;;;;;5052731;28;20497;-56
2022/10/08 12:49:41;;;;;;;5.10;1.02;;;15.80;99.90;;;;;;5055720;28;20162;-55
2022/10/08 12:52:12;;;;;;;4.70;1.13;;;15.60;99.90;;;;;;5057760;28;20387;-55
2022/10/08 12:54:50;;;;;;;10.05;1.45;;;15.50;99.90;;;;;;5057704;28;20048;-57
2022/10/08 12:57:22;;;;;;;6.57;1.58;;;15.40;99.90;;;;;;5057575;28;20107;-56
2022/10/08 12:59:49;;;;;;;11.07;1.75;;;15.20;99.90;;;;;;5057302;28;20145;-56
2022/10/08 13:02:27;;;;;;;5.25;1.02;;;14.60;99.90;;;;;;5057472;28;20094;-55
2022/10/08 13:04:52;;;;;;;5.07;0.88;;;14.20;99.90;;;;;;5057444;28;20369;-56